Time;durP1;ratioP1;P1;durP2;ratioP2;P2;SDS_P1;SDS_P2;PMS_P1;PMS_P2;Temp;Humidity;BMP_temperature;BMP_pressure;BME280_temperature;BME280_humidity;BME280_pressure;Samples;Min_cycle;Max_cycle;Signal;HPM_P1;HPM_P2
2021/12/21 00:00:11;;;;;;;32.20;16.02;;;1.80;99.90;;;;;;5076900;28;20020;-59
2021/12/21 00:02:50;;;;;;;33.50;14.68;;;1.80;99.90;;;;;;5076232;28;20115;-58
2021/12/21 00:05:21;;;;;;;30.25;15.63;;;1.80;99.90;;;;;;5077420;28;20052;-60
2021/12/21 00:07:51;;;;;;;32.22;17.05;;;1.80;99.90;;;;;;5077186;28;20354;-60
2021/12/21 00:10:19;;;;;;;33.28;16.23;;;1.80;99.90;;;;;;5076718;28;20033;-60
2021/12/21 00:13:02;;;;;;;31.67;15.15;;;1.80;99.90;;;;;;5077169;28;20052;-59
2021/12/21 00:15:42;;;;;;;32.35;16.17;;;1.70;99.90;;;;;;5076928;28;20427;-60
2021/12/21 00:26:19;;;;;;;35.83;15.38;;;1.70;99.90;;;;;;5076643;28;20103;-60
2021/12/21 00:28:58;;;;;;;28.48;15.18;;;1.60;99.90;;;;;;5075876;28;20032;-60
2021/12/21 00:31:26;;;;;;;36.65;15.65;;;1.70;99.90;;;;;;5076408;28;20391;-59
2021/12/21 00:33:52;;;;;;;29.25;15.27;;;1.70;99.90;;;;;;5075600;28;20047;-59
2021/12/21 00:36:21;;;;;;;31.15;15.68;;;1.60;99.90;;;;;;5076548;28;20404;-61
2021/12/21 00:38:48;;;;;;;26.27;15.23;;;1.50;99.90;;;;;;5076303;28;20036;-59
2021/12/21 00:41:14;;;;;;;32.00;15.50;;;1.50;99.90;;;;;;5075537;28;20097;-62
2021/12/21 00:43:41;;;;;;;37.95;16.08;;;1.50;99.90;;;;;;5059081;28;20111;-60
2021/12/21 00:46:08;;;;;;;25.67;14.77;;;1.50;99.90;;;;;;5076354;28;20380;-60
2021/12/21 00:48:34;;;;;;;35.63;16.17;;;1.50;99.90;;;;;;5076487;28;20039;-61
2021/12/21 00:51:05;;;;;;;29.48;15.25;;;1.60;99.90;;;;;;5058983;28;20032;-61
2021/12/21 00:53:31;;;;;;;31.92;15.75;;;1.60;99.90;;;;;;5076387;28;20032;-59
2021/12/21 00:55:57;;;;;;;34.65;15.52;;;1.60;99.90;;;;;;5076302;28;20028;-60
2021/12/21 00:58:23;;;;;;;32.53;16.02;;;1.50;99.90;;;;;;5076229;28;20111;-60
2021/12/21 01:00:49;;;;;;;33.47;16.48;;;1.50;99.90;;;;;;5076846;28;20043;-60
2021/12/21 01:03:16;;;;;;;36.67;15.85;;;1.50;99.90;;;;;;5079408;28;20025;-60
2021/12/21 01:05:50;;;;;;;31.58;15.35;;;1.40;99.90;;;;;;5080246;28;20294;-60
2021/12/21 01:08:24;;;;;;;29.92;15.35;;;1.40;99.90;;;;;;5080196;28;20308;-60
2021/12/21 01:11:03;;;;;;;32.90;15.77;;;1.40;99.90;;;;;;5079923;28;20044;-59
2021/12/21 01:18:51;;;;;;;33.58;15.52;;;1.30;99.90;;;;;;5078992;28;20308;-60
2021/12/21 01:21:20;;;;;;;34.70;15.60;;;1.40;99.90;;;;;;5079934;28;20033;-60
2021/12/21 01:26:34;;;;;;;35.67;16.20;;;1.30;99.90;;;;;;5079713;28;20032;-60
2021/12/21 01:31:44;;;;;;;36.17;15.80;;;1.20;99.90;;;;;;5080104;28;20036;-60
2021/12/21 01:37:02;;;;;;;30.70;15.65;;;1.10;99.90;;;;;;5079986;28;20040;-62
2021/12/21 01:39:57;;;;;;;29.98;14.77;;;1.10;99.90;;;;;;5079684;28;20036;-61
2021/12/21 01:42:32;;;;;;;29.02;14.82;;;1.10;99.90;;;;;;5079278;28;20117;-60
2021/12/21 01:50:27;;;;;;;30.33;15.40;;;1.10;99.90;;;;;;5079785;28;20072;-60
2021/12/21 01:52:53;;;;;;;30.05;14.30;;;1.10;99.90;;;;;;5079156;28;20457;-60
2021/12/21 01:55:19;;;;;;;36.40;16.02;;;1.10;99.90;;;;;;5079130;28;20032;-60
2021/12/21 01:57:45;;;;;;;25.35;14.80;;;1.00;99.90;;;;;;5079072;28;20048;-60
2021/12/21 02:00:12;;;;;;;26.60;14.88;;;1.00;99.90;;;;;;5079098;28;20324;-60
2021/12/21 02:02:38;;;;;;;33.33;15.70;;;0.90;99.90;;;;;;5079394;28;20035;-60
2021/12/21 02:05:04;;;;;;;35.67;15.93;;;0.90;99.90;;;;;;5079020;28;20107;-60
2021/12/21 02:07:30;;;;;;;27.63;14.55;;;0.90;99.90;;;;;;5079035;28;20114;-61
2021/12/21 02:09:56;;;;;;;26.17;14.73;;;1.00;99.90;;;;;;5078928;28;20032;-61
2021/12/21 02:12:22;;;;;;;36.00;15.65;;;1.00;99.90;;;;;;5078923;28;20032;-64
2021/12/21 02:14:56;;;;;;;31.55;15.05;;;1.00;99.90;;;;;;5078047;28;20039;-60
2021/12/21 02:18:02;;;;;;;29.13;15.07;;;1.00;99.90;;;;;;5078674;28;20043;-60
2021/12/21 02:20:27;;;;;;;25.10;13.50;;;0.90;99.90;;;;;;5078551;28;20044;-61
2021/12/21 02:23:01;;;;;;;33.55;14.85;;;0.90;99.90;;;;;;5078673;28;20069;-60
2021/12/21 02:28:32;;;;;;;24.65;13.88;;;0.80;99.90;;;;;;5078489;28;20123;-61
2021/12/21 02:30:58;;;;;;;29.58;14.32;;;0.80;99.90;;;;;;5078477;28;20127;-60
2021/12/21 02:33:25;;;;;;;29.80;13.95;;;0.70;99.90;;;;;;5078482;28;20360;-61
2021/12/21 02:35:51;;;;;;;27.20;13.88;;;0.70;99.90;;;;;;5078200;28;20056;-59
2021/12/21 02:38:18;;;;;;;27.88;13.85;;;0.70;99.90;;;;;;5078515;28;20112;-61
2021/12/21 02:40:45;;;;;;;22.02;13.90;;;0.70;99.90;;;;;;5078266;28;20115;-61
2021/12/21 02:43:13;;;;;;;25.40;13.85;;;0.70;99.90;;;;;;5078299;28;20032;-59
2021/12/21 02:45:40;;;;;;;26.73;14.05;;;0.70;99.90;;;;;;5078068;28;20025;-59
2021/12/21 02:48:06;;;;;;;29.08;14.00;;;0.70;99.90;;;;;;5077457;28;20452;-60
2021/12/21 02:50:32;;;;;;;25.10;14.05;;;0.70;99.90;;;;;;5078101;28;20044;-60
2021/12/21 02:53:01;;;;;;;29.40;14.05;;;0.70;99.90;;;;;;5078014;28;20040;-60
2021/12/21 02:55:26;;;;;;;28.00;13.80;;;0.70;99.90;;;;;;5078064;28;20051;-60
2021/12/21 02:57:53;;;;;;;34.92;13.85;;;0.70;99.90;;;;;;5078162;28;20036;-60
2021/12/21 03:00:19;;;;;;;29.90;13.60;;;0.70;99.90;;;;;;5077886;28;20347;-61
2021/12/21 03:02:45;;;;;;;28.88;13.30;;;0.70;99.90;;;;;;5078181;28;20036;-61
2021/12/21 03:05:11;;;;;;;27.63;13.75;;;0.70;99.90;;;;;;5077023;28;20305;-60
2021/12/21 03:08:22;;;;;;;28.20;13.93;;;0.70;99.90;;;;;;5077730;28;20119;-60
2021/12/21 03:10:28;;;;;;;28.55;13.32;;;0.70;99.90;;;;;;5071625;28;20049;-62
2021/12/21 03:15:38;;;;;;;27.27;12.95;;;0.60;99.90;;;;;;5076848;28;20032;-60
2021/12/21 03:18:04;;;;;;;28.83;12.68;;;0.60;99.90;;;;;;5077495;28;20040;-60
2021/12/21 03:20:30;;;;;;;25.45;13.82;;;0.50;99.90;;;;;;5077470;28;20032;-60
2021/12/21 03:22:56;;;;;;;27.10;13.18;;;0.50;99.90;;;;;;5077478;28;20094;-60
2021/12/21 03:25:22;;;;;;;24.80;13.00;;;0.50;99.90;;;;;;5077247;28;20025;-60
2021/12/21 03:27:48;;;;;;;25.23;13.70;;;0.40;99.90;;;;;;5077700;28;20103;-60
2021/12/21 03:30:15;;;;;;;23.35;12.63;;;0.40;99.90;;;;;;5077267;28;20128;-59
2021/12/21 03:32:42;;;;;;;26.00;13.02;;;0.40;99.90;;;;;;5077302;28;20037;-59
2021/12/21 03:35:09;;;;;;;23.52;13.07;;;0.50;99.90;;;;;;5077203;28;20052;-60
2021/12/21 03:37:35;;;;;;;23.60;12.63;;;0.40;99.90;;;;;;5077178;28;20051;-60
2021/12/21 03:40:03;;;;;;;21.63;12.77;;;0.40;99.90;;;;;;5076509;28;20124;-59
2021/12/21 03:42:29;;;;;;;24.38;12.10;;;0.40;99.90;;;;;;5076494;28;20048;-60
2021/12/21 03:44:55;;;;;;;26.85;13.48;;;0.40;99.90;;;;;;5077045;28;20033;-59
2021/12/21 03:47:23;;;;;;;23.63;12.55;;;0.50;99.90;;;;;;5076775;28;20396;-60
2021/12/21 03:52:18;;;;;;;31.50;13.40;;;0.40;99.90;;;;;;5076983;28;20322;-60
2021/12/21 03:54:48;;;;;;;25.20;13.20;;;0.40;99.90;;;;;;5077028;28;20288;-60
2021/12/21 03:57:14;;;;;;;24.02;12.00;;;0.40;99.90;;;;;;5076800;28;20127;-60
2021/12/21 03:59:42;;;;;;;25.77;12.85;;;0.30;99.90;;;;;;5076883;28;20033;-60
2021/12/21 04:02:08;;;;;;;22.63;12.02;;;0.40;99.90;;;;;;5076861;28;20110;-59
2021/12/21 04:04:34;;;;;;;21.90;11.27;;;0.30;99.90;;;;;;5076875;28;20035;-60
2021/12/21 04:07:00;;;;;;;23.50;11.73;;;0.30;99.90;;;;;;5077476;28;20300;-60
2021/12/21 04:09:26;;;;;;;19.42;12.27;;;0.30;99.90;;;;;;5077163;28;20037;-60
2021/12/21 04:11:52;;;;;;;22.33;12.13;;;0.30;99.90;;;;;;5076869;28;20119;-60
2021/12/21 04:14:19;;;;;;;22.98;11.63;;;0.20;99.90;;;;;;5076791;28;20028;-60
2021/12/21 04:16:45;;;;;;;22.33;11.43;;;0.20;99.90;;;;;;5076128;28;20040;-60
2021/12/21 04:19:12;;;;;;;24.05;11.32;;;0.20;99.90;;;;;;5076743;28;20036;-60
2021/12/21 04:21:38;;;;;;;25.90;12.15;;;0.20;99.90;;;;;;5076770;28;20277;-60
2021/12/21 04:24:04;;;;;;;22.77;11.63;;;0.10;99.90;;;;;;5076965;28;20094;-60
2021/12/21 04:26:30;;;;;;;23.60;11.88;;;0.20;99.90;;;;;;5076746;28;20032;-60
2021/12/21 04:28:56;;;;;;;29.05;12.48;;;0.10;99.90;;;;;;5075867;28;20040;-60
2021/12/21 04:31:21;;;;;;;21.98;11.63;;;0.10;99.90;;;;;;5075789;28;20047;-60
2021/12/21 04:33:47;;;;;;;22.20;11.20;;;0.10;99.90;;;;;;5076399;28;20056;-61
2021/12/21 04:36:14;;;;;;;24.33;11.45;;;0.10;99.90;;;;;;5076648;28;20032;-60
2021/12/21 04:38:44;;;;;;;25.45;10.98;;;0.10;99.90;;;;;;5080491;28;20131;-60
2021/12/21 04:41:15;;;;;;;21.48;11.15;;;0.10;99.90;;;;;;5080937;28;20037;-60
2021/12/21 04:43:42;;;;;;;20.17;11.02;;;0.10;99.90;;;;;;5080517;28;20127;-61
2021/12/21 04:46:09;;;;;;;22.42;11.80;;;0.10;99.90;;;;;;5080472;28;20025;-60
2021/12/21 04:48:36;;;;;;;22.73;11.40;;;0.00;99.90;;;;;;5080607;28;20028;-60
2021/12/21 04:51:02;;;;;;;17.73;10.40;;;0.00;99.90;;;;;;5080357;28;20037;-60
2021/12/21 04:53:28;;;;;;;19.73;10.75;;;0.10;99.90;;;;;;5080579;28;20280;-60
2021/12/21 04:55:54;;;;;;;23.83;11.48;;;0.00;99.90;;;;;;5080233;28;20033;-60
2021/12/21 04:58:20;;;;;;;22.27;10.63;;;0.10;99.90;;;;;;5080112;28;20043;-60
2021/12/21 05:00:47;;;;;;;23.52;10.88;;;0.00;99.90;;;;;;5080197;28;20020;-60
2021/12/21 05:03:13;;;;;;;23.60;11.52;;;0.00;99.90;;;;;;5080100;28;20029;-60
2021/12/21 05:05:39;;;;;;;21.83;11.35;;;0.00;99.90;;;;;;5080026;28;20055;-60
2021/12/21 05:08:10;;;;;;;21.27;10.32;;;-0.10;99.90;;;;;;5079240;28;20031;-61
2021/12/21 05:10:48;;;;;;;19.70;10.27;;;0.00;99.90;;;;;;5080079;28;20047;-60
2021/12/21 05:13:15;;;;;;;19.48;10.20;;;0.00;99.90;;;;;;5080237;28;20060;-60
2021/12/21 05:15:42;;;;;;;21.52;9.98;;;0.00;99.90;;;;;;5080090;28;20426;-60
2021/12/21 05:18:12;;;;;;;22.88;10.38;;;-0.10;99.90;;;;;;5079657;28;20038;-60
2021/12/21 05:20:39;;;;;;;21.13;9.93;;;-0.10;99.90;;;;;;5079749;28;20101;-61
2021/12/21 05:23:07;;;;;;;17.48;10.05;;;-0.10;99.90;;;;;;5079701;28;20020;-60
2021/12/21 05:25:33;;;;;;;20.55;10.60;;;-0.20;99.90;;;;;;5079680;28;20028;-60
2021/12/21 05:27:59;;;;;;;21.90;10.27;;;-0.10;99.90;;;;;;5079610;28;20029;-60
2021/12/21 05:30:27;;;;;;;19.00;10.43;;;-0.10;99.90;;;;;;5079586;28;20039;-60
2021/12/21 05:32:55;;;;;;;19.55;9.90;;;-0.10;99.90;;;;;;5079549;28;20044;-60
2021/12/21 05:35:22;;;;;;;21.35;10.85;;;-0.10;99.90;;;;;;5078929;28;20044;-60
2021/12/21 05:37:51;;;;;;;15.88;9.35;;;-0.20;99.90;;;;;;5079414;28;20269;-60
2021/12/21 05:40:18;;;;;;;19.25;10.32;;;-0.20;99.90;;;;;;5079653;28;20024;-60
2021/12/21 05:42:47;;;;;;;20.52;9.93;;;-0.20;99.90;;;;;;5079946;28;20387;-60
2021/12/21 05:45:17;;;;;;;22.85;10.88;;;-0.20;99.90;;;;;;5078603;28;20115;-60
2021/12/21 05:47:43;;;;;;;20.15;10.43;;;-0.20;99.90;;;;;;5078571;28;20399;-60
2021/12/21 05:50:15;;;;;;;20.00;9.52;;;-0.20;99.90;;;;;;5077673;28;20028;-60
2021/12/21 05:52:41;;;;;;;22.83;10.37;;;-0.20;99.90;;;;;;5079666;28;20078;-60
2021/12/21 05:55:11;;;;;;;22.17;9.93;;;-0.20;99.90;;;;;;5079109;28;20285;-60
2021/12/21 05:57:37;;;;;;;16.90;9.38;;;-0.30;99.90;;;;;;5078966;28;20043;-59
2021/12/21 06:00:07;;;;;;;20.77;10.77;;;-0.30;99.90;;;;;;5078355;28;20107;-60
2021/12/21 06:02:33;;;;;;;21.05;10.35;;;-0.20;99.90;;;;;;5079109;28;20347;-60
2021/12/21 06:04:59;;;;;;;23.63;10.35;;;-0.20;99.90;;;;;;5078936;28;20039;-59
2021/12/21 06:07:24;;;;;;;20.95;10.15;;;-0.10;99.90;;;;;;5078143;28;20289;-60
2021/12/21 06:09:50;;;;;;;19.58;10.30;;;-0.10;99.90;;;;;;5078858;28;20037;-59
2021/12/21 06:13:16;;;;;;;19.63;10.20;;;-0.20;99.90;;;;;;5079200;28;20029;-60
2021/12/21 06:15:20;;;;;;;20.88;9.52;;;-0.20;99.90;;;;;;5073120;28;20054;-60
2021/12/21 06:25:56;;;;;;;21.05;9.73;;;-0.30;99.90;;;;;;5078791;28;20089;-60
2021/12/21 06:28:22;;;;;;;18.25;9.13;;;-0.30;99.90;;;;;;5078469;28;20076;-60
2021/12/21 06:30:49;;;;;;;16.48;9.27;;;-0.30;99.90;;;;;;5078548;28;20033;-59
2021/12/21 06:33:15;;;;;;;15.13;8.75;;;-0.30;99.90;;;;;;5078432;28;20367;-60
2021/12/21 06:35:41;;;;;;;19.85;9.10;;;-0.30;99.90;;;;;;5077455;28;20061;-60
2021/12/21 06:38:07;;;;;;;14.32;9.15;;;-0.30;99.90;;;;;;5078113;28;20111;-59
2021/12/21 06:40:34;;;;;;;15.68;8.82;;;-0.40;99.90;;;;;;5078238;28;20075;-59
2021/12/21 06:43:02;;;;;;;18.67;9.27;;;-0.30;99.90;;;;;;5078421;28;20033;-60
2021/12/21 06:53:36;;;;;;;16.52;9.00;;;-0.40;99.90;;;;;;5078289;28;20102;-59
2021/12/21 06:56:03;;;;;;;17.17;9.10;;;-0.50;99.90;;;;;;5077187;28;20450;-60
2021/12/21 06:58:29;;;;;;;13.50;8.38;;;-0.40;99.90;;;;;;5077952;28;20044;-60
2021/12/21 07:00:56;;;;;;;17.90;8.90;;;-0.50;99.90;;;;;;5077459;28;20052;-60
2021/12/21 07:03:22;;;;;;;19.88;9.07;;;-0.50;99.90;;;;;;5060414;28;20029;-60
2021/12/21 07:05:49;;;;;;;16.48;8.70;;;-0.50;99.90;;;;;;5077059;28;20043;-60
2021/12/21 07:08:19;;;;;;;20.73;9.82;;;-0.50;99.90;;;;;;5077714;28;20071;-60
2021/12/21 07:10:54;;;;;;;20.60;9.98;;;-0.50;99.90;;;;;;5077754;28;20043;-60
2021/12/21 07:18:52;;;;;;;21.50;10.20;;;-0.40;99.90;;;;;;5077584;28;20056;-60
2021/12/21 07:21:18;;;;;;;24.92;9.98;;;-0.50;99.90;;;;;;5077500;28;20064;-59
2021/12/21 07:23:44;;;;;;;26.85;9.77;;;-0.40;99.90;;;;;;5076651;28;20399;-60
2021/12/21 07:26:09;;;;;;;18.73;9.70;;;-0.50;99.90;;;;;;5077397;28;20024;-59
2021/12/21 07:28:35;;;;;;;17.60;9.43;;;-0.50;99.90;;;;;;5076744;28;20029;-59
2021/12/21 07:31:01;;;;;;;19.42;9.23;;;-0.60;99.90;;;;;;5076648;28;20037;-59
2021/12/21 07:33:27;;;;;;;19.52;9.48;;;-0.60;99.90;;;;;;5076600;28;20037;-59
2021/12/21 07:35:53;;;;;;;18.55;9.38;;;-0.60;99.90;;;;;;5077121;28;20194;-59
2021/12/21 07:38:19;;;;;;;21.73;10.10;;;-0.50;99.90;;;;;;5077146;28;20090;-60
2021/12/21 07:40:46;;;;;;;26.15;10.60;;;-0.50;99.90;;;;;;5077442;28;20049;-59
2021/12/21 07:43:12;;;;;;;24.73;10.18;;;-0.50;99.90;;;;;;5077164;28;20092;-60
2021/12/21 07:45:40;;;;;;;20.25;10.10;;;-0.50;99.90;;;;;;5077082;28;20078;-60
2021/12/21 07:48:06;;;;;;;21.80;10.20;;;-0.50;99.90;;;;;;5077003;28;20028;-60
2021/12/21 07:50:32;;;;;;;22.00;9.27;;;-0.40;99.90;;;;;;5076262;28;20347;-60
2021/12/21 07:53:00;;;;;;;20.75;9.00;;;-0.50;99.90;;;;;;5076963;28;20093;-60
2021/12/21 07:55:26;;;;;;;18.52;9.60;;;-0.50;99.90;;;;;;5076033;28;20123;-60
2021/12/21 07:57:52;;;;;;;22.15;9.68;;;-0.50;99.90;;;;;;5076952;28;20120;-61
2021/12/21 08:00:19;;;;;;;23.33;9.88;;;-0.60;99.90;;;;;;5076933;28;20388;-60
2021/12/21 08:02:45;;;;;;;19.20;9.93;;;-0.60;99.90;;;;;;5076253;28;20028;-60
2021/12/21 08:05:12;;;;;;;20.55;9.77;;;-0.50;99.90;;;;;;5076908;28;20036;-60
2021/12/21 08:07:47;;;;;;;25.70;10.85;;;-0.50;99.90;;;;;;5076670;28;20053;-60
2021/12/21 08:10:26;;;;;;;19.77;10.02;;;-0.50;99.90;;;;;;5077387;28;20036;-60
2021/12/21 08:12:52;;;;;;;20.15;10.50;;;-0.50;99.90;;;;;;5076149;28;20044;-60
2021/12/21 08:15:18;;;;;;;20.83;10.20;;;-0.40;99.90;;;;;;5076811;28;20013;-59
2021/12/21 08:17:44;;;;;;;26.90;10.52;;;-0.40;99.90;;;;;;5076690;28;20028;-59
2021/12/21 08:20:10;;;;;;;21.80;10.80;;;-0.40;99.90;;;;;;5076836;28;20044;-60
2021/12/21 08:22:36;;;;;;;19.67;11.45;;;-0.40;99.90;;;;;;5076779;28;20035;-60
2021/12/21 08:25:02;;;;;;;21.10;11.20;;;-0.40;99.90;;;;;;5076797;28;20028;-60
2021/12/21 08:27:28;;;;;;;21.63;10.88;;;-0.30;99.90;;;;;;5076724;28;20071;-60
2021/12/21 08:29:54;;;;;;;24.48;11.60;;;-0.30;99.90;;;;;;5076708;28;20029;-62
2021/12/21 08:32:20;;;;;;;21.48;11.25;;;-0.30;99.90;;;;;;5076239;28;20068;-60
2021/12/21 08:34:46;;;;;;;21.38;10.65;;;-0.30;99.90;;;;;;5076358;28;20323;-60
2021/12/21 08:37:11;;;;;;;19.38;10.55;;;-0.20;99.90;;;;;;5076452;28;20331;-60
2021/12/21 08:39:39;;;;;;;26.35;11.88;;;-0.20;99.90;;;;;;5076614;28;20033;-61
2021/12/21 08:42:08;;;;;;;20.02;10.32;;;-0.10;99.90;;;;;;5076937;28;20042;-61
2021/12/21 08:44:34;;;;;;;22.38;10.40;;;-0.10;99.90;;;;;;5076514;28;20036;-58
2021/12/21 08:47:00;;;;;;;23.33;11.18;;;-0.10;99.90;;;;;;5075647;28;20078;-59
2021/12/21 08:49:26;;;;;;;23.55;10.98;;;0.00;99.90;;;;;;5075755;28;20040;-59
2021/12/21 08:51:56;;;;;;;21.55;10.52;;;0.00;99.90;;;;;;5075824;28;20285;-59
2021/12/21 08:54:22;;;;;;;21.95;11.05;;;0.10;99.90;;;;;;5076504;28;20392;-59
2021/12/21 08:56:48;;;;;;;26.95;11.95;;;0.10;99.90;;;;;;5076252;28;20113;-59
2021/12/21 08:59:16;;;;;;;25.60;10.85;;;0.20;99.90;;;;;;5076365;28;20024;-60
2021/12/21 09:01:43;;;;;;;23.15;11.43;;;0.20;99.90;;;;;;5075447;28;20356;-60
2021/12/21 09:04:09;;;;;;;25.85;11.82;;;0.30;99.90;;;;;;5076261;28;20035;-59
2021/12/21 09:06:35;;;;;;;25.85;11.30;;;0.30;99.90;;;;;;5076859;28;20125;-59
2021/12/21 09:09:01;;;;;;;26.27;11.38;;;0.30;99.90;;;;;;5076196;28;20056;-60
2021/12/21 09:11:27;;;;;;;27.40;12.00;;;0.30;99.90;;;;;;5075559;28;20119;-60
2021/12/21 09:13:52;;;;;;;40.55;22.50;;;0.30;99.90;;;;;;5075183;28;20123;-60
2021/12/21 09:16:18;;;;;;;54.92;21.42;;;0.40;99.90;;;;;;5075696;28;20037;-60
2021/12/21 09:18:45;;;;;;;28.33;13.77;;;0.50;99.90;;;;;;5075025;28;20082;-60
2021/12/21 09:21:11;;;;;;;30.67;12.73;;;0.50;99.90;;;;;;5075802;28;20017;-60
2021/12/21 09:23:37;;;;;;;35.15;13.40;;;0.60;99.90;;;;;;5077874;28;20029;-60
2021/12/21 09:26:02;;;;;;;31.67;13.10;;;0.70;99.90;;;;;;5078682;28;20395;-60
2021/12/21 09:28:28;;;;;;;24.80;12.25;;;0.90;99.90;;;;;;5078603;28;20040;-60
2021/12/21 09:30:54;;;;;;;27.92;12.90;;;1.10;99.90;;;;;;5079617;28;20032;-60
2021/12/21 09:33:20;;;;;;;29.95;12.38;;;1.10;99.90;;;;;;5079687;28;20032;-61
2021/12/21 09:35:46;;;;;;;32.15;13.27;;;1.10;99.90;;;;;;5079374;28;20048;-60
2021/12/21 09:38:12;;;;;;;31.73;12.68;;;1.00;99.90;;;;;;5079428;28;20406;-60
2021/12/21 09:40:39;;;;;;;32.88;13.07;;;1.10;99.90;;;;;;5079783;28;20032;-60
2021/12/21 09:43:08;;;;;;;29.33;12.23;;;1.20;99.90;;;;;;5079951;28;20388;-60
2021/12/21 09:45:35;;;;;;;28.73;13.25;;;1.20;99.90;;;;;;5079919;28;20056;-61
2021/12/21 09:48:01;;;;;;;22.17;11.60;;;1.30;99.90;;;;;;5079289;28;20060;-61
2021/12/21 09:50:27;;;;;;;19.60;10.27;;;1.90;99.90;;;;;;5079342;28;20460;-61
2021/12/21 09:52:54;;;;;;;19.63;9.77;;;2.70;99.90;;;;;;5079192;28;20367;-61
2021/12/21 09:55:20;;;;;;;17.55;9.00;;;3.50;99.90;;;;;;5079131;28;20323;-61
2021/12/21 09:57:47;;;;;;;17.98;9.18;;;4.20;99.90;;;;;;5079049;28;20304;-61
2021/12/21 10:00:23;;;;;;;14.95;8.60;;;5.00;99.90;;;;;;5078425;28;20060;-61
2021/12/21 10:02:49;;;;;;;18.42;8.73;;;5.30;99.90;;;;;;5079042;28;20071;-61
2021/12/21 10:05:20;;;;;;;14.23;8.25;;;5.50;99.90;;;;;;5078977;28;20036;-61
2021/12/21 10:08:24;;;;;;;12.40;8.00;;;5.70;99.90;;;;;;5078971;28;20037;-61
2021/12/21 10:10:52;;;;;;;14.38;8.20;;;6.40;99.90;;;;;;5079317;28;20044;-61
2021/12/21 10:13:24;;;;;;;16.10;8.75;;;7.20;99.90;;;;;;5078835;28;20031;-60
2021/12/21 10:15:55;;;;;;;10.33;5.87;;;7.70;99.90;;;;;;5079134;28;20039;-63
2021/12/21 10:18:46;;;;;;;12.82;7.85;;;8.10;99.90;;;;;;5078868;28;20558;-61
2021/12/21 10:21:14;;;;;;;16.65;8.32;;;8.60;99.90;;;;;;5079298;28;20032;-61
2021/12/21 10:23:46;;;;;;;17.10;8.20;;;9.20;99.90;;;;;;5078767;28;20016;-61
2021/12/21 10:26:24;;;;;;;14.50;8.38;;;9.60;99.90;;;;;;5079007;28;20113;-61
2021/12/21 10:28:57;;;;;;;20.60;9.50;;;10.00;99.90;;;;;;5078488;28;20021;-61
2021/12/21 10:31:28;;;;;;;17.40;8.77;;;10.50;99.90;;;;;;5078299;28;20051;-61
2021/12/21 10:33:56;;;;;;;13.15;8.07;;;10.90;99.90;;;;;;5077775;28;20029;-60
2021/12/21 10:36:25;;;;;;;18.88;8.85;;;11.10;99.90;;;;;;5077453;28;20040;-60
2021/12/21 10:38:57;;;;;;;14.18;8.40;;;11.30;99.90;;;;;;5078198;28;20430;-61
2021/12/21 10:41:40;;;;;;;13.05;8.45;;;11.70;99.90;;;;;;5078365;28;20064;-61
2021/12/21 10:44:10;;;;;;;12.13;8.25;;;11.90;99.90;;;;;;5078226;28;20038;-61
2021/12/21 10:46:41;;;;;;;18.00;8.50;;;12.30;99.90;;;;;;5078186;28;20028;-61
2021/12/21 10:49:19;;;;;;;12.73;7.70;;;11.50;99.90;;;;;;5078177;28;20032;-62
2021/12/21 10:52:00;;;;;;;15.52;7.55;;;11.40;99.90;;;;;;5074609;28;20362;-62
2021/12/21 10:54:32;;;;;;;13.80;8.00;;;12.10;99.90;;;;;;5078101;28;20024;-61
2021/12/21 10:57:12;;;;;;;17.88;8.43;;;12.20;99.90;;;;;;5077956;28;20103;-62
2021/12/21 10:59:42;;;;;;;13.43;7.80;;;12.60;99.90;;;;;;5078217;28;20032;-62
2021/12/21 11:02:17;;;;;;;13.32;7.40;;;13.00;99.90;;;;;;5077788;28;20024;-61
2021/12/21 11:04:47;;;;;;;12.23;7.82;;;12.50;99.90;;;;;;5076948;28;20025;-62
2021/12/21 11:07:28;;;;;;;12.00;7.25;;;12.40;99.90;;;;;;5077697;28;20056;-61
2021/12/21 11:10:10;;;;;;;10.52;7.68;;;12.70;99.90;;;;;;5077783;28;20079;-62
2021/12/21 11:12:47;;;;;;;10.63;6.90;;;12.70;99.90;;;;;;5077663;28;20036;-62
2021/12/21 11:15:19;;;;;;;14.70;7.45;;;12.30;99.90;;;;;;5078189;28;20043;-61
2021/12/21 11:17:46;;;;;;;11.20;8.13;;;12.40;99.90;;;;;;5077534;28;20032;-60
2021/12/21 11:20:13;;;;;;;14.82;7.70;;;12.60;99.90;;;;;;5078043;28;20024;-62
2021/12/21 11:22:41;;;;;;;13.40;8.15;;;12.10;99.90;;;;;;5076594;28;20033;-61
2021/12/21 11:25:09;;;;;;;13.65;8.00;;;11.70;99.90;;;;;;5077518;28;20031;-61
2021/12/21 11:27:37;;;;;;;14.95;8.25;;;11.50;99.90;;;;;;5077794;28;20337;-60
2021/12/21 11:30:08;;;;;;;15.65;8.60;;;10.80;99.90;;;;;;5077884;28;20107;-63
2021/12/21 11:32:43;;;;;;;16.25;7.63;;;10.10;99.90;;;;;;5076516;28;20400;-61
2021/12/21 11:37:37;;;;;;;13.52;8.05;;;8.70;99.90;;;;;;5077169;28;20090;-61
2021/12/21 11:40:08;;;;;;;14.68;8.18;;;8.00;99.90;;;;;;5076437;28;20348;-62
2021/12/21 11:42:38;;;;;;;13.25;7.82;;;7.40;99.90;;;;;;5076501;28;20044;-60
2021/12/21 11:45:14;;;;;;;13.70;7.72;;;7.00;99.90;;;;;;5076746;28;20066;-60
2021/12/21 11:47:48;;;;;;;16.83;8.25;;;6.60;99.90;;;;;;5077097;28;20086;-60
2021/12/21 11:50:14;;;;;;;13.52;7.80;;;6.30;99.90;;;;;;5077161;28;20037;-60
2021/12/21 11:53:04;;;;;;;11.57;7.43;;;6.00;99.90;;;;;;5076936;28;20090;-60
2021/12/21 11:55:31;;;;;;;13.77;7.90;;;6.10;99.90;;;;;;5072188;28;20127;-61
2021/12/21 11:58:00;;;;;;;11.40;7.65;;;5.80;99.90;;;;;;5076776;28;20062;-61
2021/12/21 12:00:31;;;;;;;14.23;8.05;;;5.70;99.90;;;;;;5076859;28;20036;-61
2021/12/21 12:03:12;;;;;;;14.68;7.97;;;5.60;99.90;;;;;;5077219;28;20031;-61
2021/12/21 12:05:49;;;;;;;13.02;7.88;;;5.50;99.90;;;;;;5077201;28;20112;-61
2021/12/21 12:08:15;;;;;;;18.45;7.95;;;5.50;99.90;;;;;;5076591;28;20040;-61
2021/12/21 12:10:59;;;;;;;13.30;7.50;;;5.40;99.90;;;;;;5076581;28;20158;-61
2021/12/21 12:13:39;;;;;;;11.15;7.82;;;5.50;99.90;;;;;;5076962;28;20090;-61
2021/12/21 12:16:12;;;;;;;13.32;7.75;;;6.20;99.90;;;;;;5076761;28;20040;-60
2021/12/21 12:18:45;;;;;;;13.50;7.68;;;6.10;99.90;;;;;;5076582;28;20475;-61
2021/12/21 12:21:20;;;;;;;18.13;8.00;;;6.00;99.90;;;;;;5077285;28;20024;-60
2021/12/21 12:24:01;;;;;;;15.57;6.80;;;5.90;99.90;;;;;;5076663;28;20020;-59
2021/12/21 12:26:36;;;;;;;12.18;6.35;;;5.80;99.90;;;;;;5075926;28;20036;-60
2021/12/21 12:29:17;;;;;;;10.63;6.35;;;5.60;99.90;;;;;;5076749;28;20056;-60
2021/12/21 12:31:56;;;;;;;13.23;6.50;;;5.60;99.90;;;;;;5076580;28;20025;-61
2021/12/21 12:34:23;;;;;;;12.60;6.15;;;5.50;99.90;;;;;;5076883;28;20384;-60
2021/12/21 12:36:51;;;;;;;13.02;6.85;;;5.40;99.90;;;;;;5076834;28;20028;-61
2021/12/21 12:39:34;;;;;;;8.35;5.80;;;5.40;99.90;;;;;;5076475;28;20040;-61
2021/12/21 12:42:17;;;;;;;8.95;5.70;;;5.20;99.90;;;;;;5076532;28;20033;-62
2021/12/21 12:44:45;;;;;;;10.18;5.95;;;5.20;99.90;;;;;;5076509;28;20020;-61
2021/12/21 12:47:14;;;;;;;10.25;6.03;;;5.20;99.90;;;;;;5076469;28;20036;-62
2021/12/21 12:49:52;;;;;;;11.02;6.05;;;5.10;99.90;;;;;;5075759;28;20043;-62
2021/12/21 12:52:28;;;;;;;9.90;5.72;;;5.20;99.90;;;;;;5076923;28;20161;-62
2021/12/21 12:55:12;;;;;;;11.90;6.57;;;5.10;99.90;;;;;;5076988;28;20074;-60
2021/12/21 12:57:48;;;;;;;11.77;6.22;;;5.30;99.90;;;;;;5077029;28;20033;-63
2021/12/21 13:00:20;;;;;;;12.27;7.35;;;5.30;99.90;;;;;;5080206;28;20020;-61
2021/12/21 13:03:14;;;;;;;12.17;6.37;;;5.40;99.90;;;;;;5080105;28;20032;-60
2021/12/21 13:05:54;;;;;;;11.38;6.60;;;5.40;99.90;;;;;;5078962;28;20312;-60
2021/12/21 13:08:28;;;;;;;9.00;6.22;;;5.30;99.90;;;;;;5079650;28;20407;-61
2021/12/21 13:10:58;;;;;;;12.70;6.07;;;5.10;99.90;;;;;;5079910;28;20043;-61
2021/12/21 13:13:35;;;;;;;10.93;5.47;;;5.10;99.90;;;;;;5079861;28;20040;-62
2021/12/21 13:16:10;;;;;;;9.35;6.32;;;5.30;99.90;;;;;;5080565;28;20174;-70
2021/12/21 13:18:54;;;;;;;9.45;5.93;;;5.30;99.90;;;;;;5079110;28;20048;-70
2021/12/21 13:21:34;;;;;;;11.63;5.85;;;5.30;99.90;;;;;;5079885;28;20099;-69
2021/12/21 13:24:11;;;;;;;7.60;5.15;;;5.10;99.90;;;;;;5079734;28;20035;-69
2021/12/21 13:26:45;;;;;;;9.75;5.43;;;4.90;99.90;;;;;;5080277;28;20036;-70
2021/12/21 13:29:14;;;;;;;6.85;5.28;;;4.90;99.90;;;;;;5079589;28;20071;-70
2021/12/21 13:31:40;;;;;;;8.52;5.30;;;4.90;99.90;;;;;;5079603;28;20025;-70
2021/12/21 13:34:07;;;;;;;6.22;5.07;;;4.90;99.90;;;;;;5079259;28;20064;-70
2021/12/21 13:36:44;;;;;;;7.20;5.05;;;4.80;99.90;;;;;;5079488;28;20040;-70
2021/12/21 13:39:24;;;;;;;7.78;5.00;;;4.90;99.90;;;;;;5079533;28;20029;-70
2021/12/21 13:41:54;;;;;;;11.30;5.72;;;5.00;99.90;;;;;;5079449;28;20025;-69
2021/12/21 13:44:22;;;;;;;8.40;5.47;;;5.00;99.90;;;;;;5079580;28;20395;-70
2021/12/21 13:46:49;;;;;;;7.80;5.57;;;5.10;99.90;;;;;;5079951;28;20039;-70
2021/12/21 13:49:15;;;;;;;7.97;5.25;;;5.10;99.90;;;;;;5079327;28;20036;-69